Knot 7 — WDH4675 — position and weather

sailwx.info

Track history (hours):
 
Tides and Currents Weather Stations Pressure Air Temp Water Temp Dewpoint Dewpoint Depression Visibility Wind Speed Wind Dir Waves Ship Positions

Knot 7

Owner: NGL Marine, LLC, Houston, TX. More information available from US FCC via Universal Licensing System and Coast Guard Vessel Documentation Center.

Last reported at 2018-Feb-20 07:30 UTC. Time now 2018-Feb-20 07:35 UTC.
Position N 29°46' W 095°06'.

Length 5 m; draft 3.2 m.

Type: Towing. MMSI: 367620160.

Date/timePositionNaut miles runAvg speedWind from/ knotsBaromVisibWave heightAir tempDewpointWater temp
2018-Feb-20 07:30N 29°46' W 095°06'0 0.0
2018-Feb-20 06:54N 29°46' W 095°06'0 0.0
2018-Feb-20 05:35N 29°46' W 095°06'0 0.0
2018-Feb-20 05:19N 29°46' W 095°06'0 0.0
2018-Feb-19 21:19N 29°46' W 095°06'0 0.0
2018-Feb-19 15:11N 29°46' W 095°06'0 0.0
2018-Feb-19 14:43N 29°46' W 095°06'0 0.0
2018-Feb-19 14:19N 29°46' W 095°06'0 0.0
2018-Feb-19 14:00N 29°46' W 095°06'0 0.0
2018-Feb-19 13:30N 29°46' W 095°06'0 0.0
2018-Feb-19 13:00N 29°46' W 095°06'0 0.0
2018-Feb-19 12:27N 29°46' W 095°06'0 0.0
2018-Feb-19 12:00N 29°46' W 095°06'0 0.0
2018-Feb-19 11:30N 29°46' W 095°06'0 0.0
2018-Feb-19 11:00N 29°46' W 095°06'0 0.0
2018-Feb-19 10:30N 29°46' W 095°06'0 0.0
2018-Feb-19 10:00N 29°46' W 095°06'0 0.0
2018-Feb-19 09:30N 29°46' W 095°06'0 0.0
2018-Feb-19 09:00N 29°46' W 095°06'0 0.0
2018-Feb-19 08:30N 29°46' W 095°06'0 0.0
2018-Feb-19 08:00N 29°46' W 095°06'0 0.0
2018-Feb-19 07:30N 29°46' W 095°06'0 0.0
2018-Feb-19 07:00N 29°46' W 095°06'0 0.0
2018-Feb-19 06:27N 29°46' W 095°06'0 0.0
2018-Feb-19 06:00N 29°46' W 095°06'0 0.0
2018-Feb-19 05:30N 29°46' W 095°06'1 1.8
2018-Feb-19 04:59N 29°46' W 095°05'3 5.6
2018-Feb-19 04:30N 29°44' W 095°08'1 0.2
2018-Feb-19 00:52N 29°44' W 095°09'2 5.1
2018-Feb-19 00:30N 29°44' W 095°07'3 0.3
2018-Feb-18 16:06N 29°47' W 095°05'0 5.0
2018-Feb-18 16:00N 29°46' W 095°05'2 0.2
2018-Feb-18 07:42N 29°46' W 095°07'0 0.0
2018-Feb-18 07:17N 29°46' W 095°07'0 0.0
2018-Feb-17 06:45N 29°46' W 095°07'0 0.0
2018-Feb-17 06:25N 29°46' W 095°07'0 0.0
2018-Feb-17 05:59N 29°46' W 095°07'0 0.0
2018-Feb-17 05:25N 29°46' W 095°07'1 0.3
2018-Feb-17 01:41N 29°45' W 095°06'1 2.4
2018-Feb-17 01:25N 29°45' W 095°06'3 5.9
2018-Feb-17 00:57N 29°44' W 095°09'4 0.6
2018-Feb-16 18:35N 29°44' W 095°13'0 0.1
2018-Feb-16 18:30N 29°44' W 095°13'0 0.0
2018-Feb-16 18:00N 29°44' W 095°13'0 0.0
2018-Feb-16 17:30N 29°44' W 095°13'0 0.0
2018-Feb-16 17:00N 29°44' W 095°13'0 0.0
2018-Feb-16 16:30N 29°44' W 095°13'0 0.0
2018-Feb-16 16:01N 29°44' W 095°13'0 0.0
2018-Feb-16 15:30N 29°44' W 095°13'0 0.0
2018-Feb-16 15:00N 29°44' W 095°13'0 0.0
2018-Feb-16 14:30N 29°44' W 095°13'0 0.0
2018-Feb-16 14:00N 29°44' W 095°13'0 0.0
2018-Feb-16 13:30N 29°44' W 095°13'1 0.1
2018-Feb-16 05:30N 29°44' W 095°12'3 6.2
2018-Feb-16 05:01N 29°44' W 095°09'4 5.5
2018-Feb-16 04:20N 29°46' W 095°05'2 6.2
2018-Feb-16 03:59N 29°44' W 095°03'2 3.6
2018-Feb-16 03:20N 29°42' W 095°02'1 2.7
2018-Feb-16 03:01N 29°43' W 095°03'0 0.1
2018-Feb-16 02:30N 29°42' W 095°03'1 2.2
2018-Feb-16 01:52N 29°44' W 095°03'3 7.1
2018-Feb-16 01:28N 29°46' W 095°05'2 3.1
2018-Feb-16 00:53N 29°47' W 095°04'5 0.9
2018-Feb-15 19:36N 29°43' W 095°03'0 0.0
2018-Feb-15 19:30N 29°43' W 095°03'0 0.0
2018-Feb-15 18:59N 29°43' W 095°03'0 0.0
2018-Feb-15 18:30N 29°43' W 095°03'0 0.0
2018-Feb-15 18:00N 29°43' W 095°03'0 0.0
2018-Feb-15 17:30N 29°43' W 095°03'0 0.0
2018-Feb-15 16:56N 29°43' W 095°03'0 0.0
2018-Feb-15 16:27N 29°43' W 095°03'0 0.0
2018-Feb-15 16:00N 29°43' W 095°03'0 0.0
2018-Feb-15 15:30N 29°43' W 095°03'0 0.0
2018-Feb-15 15:00N 29°43' W 095°03'0 0.0
2018-Feb-15 14:26N 29°43' W 095°03'0 0.0
2018-Feb-15 14:00N 29°43' W 095°03'0 0.0
2018-Feb-15 13:30N 29°43' W 095°03'0 0.0
2018-Feb-15 12:54N 29°43' W 095°03'0 0.0
2018-Feb-15 12:25N 29°43' W 095°03'0 0.0
2018-Feb-15 11:43N 29°43' W 095°03'0 0.0
2018-Feb-15 11:30N 29°43' W 095°03'0 0.0
2018-Feb-15 10:59N 29°43' W 095°03'0 0.0
2018-Feb-15 10:27N 29°43' W 095°03'0 0.0
2018-Feb-15 09:57N 29°43' W 095°03'0 0.0
2018-Feb-15 09:27N 29°43' W 095°03'0 0.0
2018-Feb-15 08:59N 29°43' W 095°03'0 0.0
2018-Feb-15 08:30N 29°43' W 095°03'0 0.0
2018-Feb-15 08:00N 29°43' W 095°03'0 0.0
2018-Feb-15 07:31N 29°43' W 095°03'0 0.0
2018-Feb-15 07:01N 29°43' W 095°03'0 0.0
2018-Feb-15 06:30N 29°43' W 095°03'0 0.0
2018-Feb-15 06:00N 29°43' W 095°03'0 0.0
2018-Feb-15 05:30N 29°43' W 095°03'0 0.0
2018-Feb-15 04:58N 29°43' W 095°03'0 0.0
2018-Feb-15 04:30N 29°43' W 095°03'0 0.0
2018-Feb-15 04:00N 29°43' W 095°03'0 0.0
2018-Feb-15 03:29N 29°43' W 095°03'0 0.0
2018-Feb-15 02:58N 29°43' W 095°03'1 1.2
2018-Feb-15 02:29N 29°42' W 095°02'2 2.5
2018-Feb-15 01:52N 29°44' W 095°03'4 0.8
2018-Feb-14 21:10N 29°47' W 095°04'4 0.2
2018-Feb-14 00:11N 29°44' W 095°02'2 6.2
2018-Feb-13 23:56N 29°43' W 095°01'1 1.6
2018-Feb-13 23:02N 29°42' W 095°03'0 0.0
2018-Feb-13 22:35N 29°42' W 095°03'0 0.0
2018-Feb-13 22:25N 29°42' W 095°03'0 0.0
2018-Feb-13 21:56N 29°42' W 095°03'0 0.0
2018-Feb-13 21:22N 29°42' W 095°03'0 0.0
2018-Feb-13 18:00N 29°42' W 095°03'0 0.0
2018-Feb-13 17:25N 29°42' W 095°03'0 0.0
2018-Feb-13 16:53N 29°42' W 095°03'0 0.0
2018-Feb-13 16:27N 29°42' W 095°03'0 0.0
2018-Feb-13 16:00N 29°42' W 095°03'0 0.0
2018-Feb-13 15:31N 29°42' W 095°03'0 0.0
2018-Feb-13 15:00N 29°42' W 095°03'0 0.0
2018-Feb-13 14:23N 29°42' W 095°03'0 0.0
2018-Feb-13 13:55N 29°42' W 095°03'0 0.0
2018-Feb-13 12:32N 29°42' W 095°03'0 0.0
2018-Feb-13 12:27N 29°42' W 095°03'0 0.0
2018-Feb-13 11:07N 29°42' W 095°03'0 0.1
2018-Feb-13 11:00N 29°42' W 095°03'0 0.0
2018-Feb-12 01:32N 29°42' W 095°03'0 0.0
2018-Feb-11 00:39N 29°42' W 095°03'0 0.0
2018-Feb-11 00:30N 29°42' W 095°03'0 0.0
2018-Feb-11 00:00N 29°42' W 095°03'0 0.0
2018-Feb-10 23:20N 29°42' W 095°03'0 0.0
2018-Feb-10 23:00N 29°42' W 095°03'0 0.0
2018-Feb-10 10:05N 29°42' W 095°03'0 0.1
2018-Feb-10 10:00N 29°42' W 095°03'0 0.0
2018-Feb-10 09:25N 29°42' W 095°03'0 0.0
2018-Feb-10 08:46N 29°42' W 095°03'0 0.0
2018-Feb-10 08:30N 29°42' W 095°03'0 0.0
2018-Feb-10 07:59N 29°42' W 095°03'  
Track history (hours):
 
Tides and Currents Weather Stations Pressure Air Temp Water Temp Dewpoint Dewpoint Depression Visibility Wind Speed Wind Dir Waves Ship Positions

Knot 7

Owner: NGL Marine, LLC, Houston, TX. More information available from US FCC via Universal Licensing System and Coast Guard Vessel Documentation Center.

Last reported at 2018-Feb-20 07:30 UTC. Time now 2018-Feb-20 07:35 UTC.
Position N 29°46' W 095°06'.

Length 5 m; draft 3.2 m.

Type: Towing. MMSI: 367620160.

Date/timePositionNaut miles runAvg speedWind from/ knotsBaromVisibWave heightAir tempDewpointWater temp
2018-Feb-20 07:30N 29°46' W 095°06'0 0.0
2018-Feb-20 06:54N 29°46' W 095°06'0 0.0
2018-Feb-20 05:35N 29°46' W 095°06'0 0.0
2018-Feb-20 05:19N 29°46' W 095°06'0 0.0
2018-Feb-19 21:19N 29°46' W 095°06'0 0.0
2018-Feb-19 15:11N 29°46' W 095°06'0 0.0
2018-Feb-19 14:43N 29°46' W 095°06'0 0.0
2018-Feb-19 14:19N 29°46' W 095°06'0 0.0
2018-Feb-19 14:00N 29°46' W 095°06'0 0.0
2018-Feb-19 13:30N 29°46' W 095°06'0 0.0
2018-Feb-19 13:00N 29°46' W 095°06'0 0.0
2018-Feb-19 12:27N 29°46' W 095°06'0 0.0
2018-Feb-19 12:00N 29°46' W 095°06'0 0.0
2018-Feb-19 11:30N 29°46' W 095°06'0 0.0
2018-Feb-19 11:00N 29°46' W 095°06'0 0.0
2018-Feb-19 10:30N 29°46' W 095°06'0 0.0
2018-Feb-19 10:00N 29°46' W 095°06'0 0.0
2018-Feb-19 09:30N 29°46' W 095°06'0 0.0
2018-Feb-19 09:00N 29°46' W 095°06'0 0.0
2018-Feb-19 08:30N 29°46' W 095°06'0 0.0
2018-Feb-19 08:00N 29°46' W 095°06'0 0.0
2018-Feb-19 07:30N 29°46' W 095°06'0 0.0
2018-Feb-19 07:00N 29°46' W 095°06'0 0.0
2018-Feb-19 06:27N 29°46' W 095°06'0 0.0
2018-Feb-19 06:00N 29°46' W 095°06'0 0.0
2018-Feb-19 05:30N 29°46' W 095°06'1 1.8
2018-Feb-19 04:59N 29°46' W 095°05'3 5.6
2018-Feb-19 04:30N 29°44' W 095°08'1 0.2
2018-Feb-19 00:52N 29°44' W 095°09'2 5.1
2018-Feb-19 00:30N 29°44' W 095°07'3 0.3
2018-Feb-18 16:06N 29°47' W 095°05'0 5.0
2018-Feb-18 16:00N 29°46' W 095°05'2 0.2
2018-Feb-18 07:42N 29°46' W 095°07'0 0.0
2018-Feb-18 07:17N 29°46' W 095°07'0 0.0
2018-Feb-17 06:45N 29°46' W 095°07'0 0.0
2018-Feb-17 06:25N 29°46' W 095°07'0 0.0
2018-Feb-17 05:59N 29°46' W 095°07'0 0.0
2018-Feb-17 05:25N 29°46' W 095°07'1 0.3
2018-Feb-17 01:41N 29°45' W 095°06'1 2.4
2018-Feb-17 01:25N 29°45' W 095°06'3 5.9
2018-Feb-17 00:57N 29°44' W 095°09'4 0.6
2018-Feb-16 18:35N 29°44' W 095°13'0 0.1
2018-Feb-16 18:30N 29°44' W 095°13'0 0.0
2018-Feb-16 18:00N 29°44' W 095°13'0 0.0
2018-Feb-16 17:30N 29°44' W 095°13'0 0.0
2018-Feb-16 17:00N 29°44' W 095°13'0 0.0
2018-Feb-16 16:30N 29°44' W 095°13'0 0.0
2018-Feb-16 16:01N 29°44' W 095°13'0 0.0
2018-Feb-16 15:30N 29°44' W 095°13'0 0.0
2018-Feb-16 15:00N 29°44' W 095°13'0 0.0
2018-Feb-16 14:30N 29°44' W 095°13'0 0.0
2018-Feb-16 14:00N 29°44' W 095°13'0 0.0
2018-Feb-16 13:30N 29°44' W 095°13'1 0.1
2018-Feb-16 05:30N 29°44' W 095°12'3 6.2
2018-Feb-16 05:01N 29°44' W 095°09'4 5.5
2018-Feb-16 04:20N 29°46' W 095°05'2 6.2
2018-Feb-16 03:59N 29°44' W 095°03'2 3.6
2018-Feb-16 03:20N 29°42' W 095°02'1 2.7
2018-Feb-16 03:01N 29°43' W 095°03'0 0.1
2018-Feb-16 02:30N 29°42' W 095°03'1 2.2
2018-Feb-16 01:52N 29°44' W 095°03'3 7.1
2018-Feb-16 01:28N 29°46' W 095°05'2 3.1
2018-Feb-16 00:53N 29°47' W 095°04'5 0.9
2018-Feb-15 19:36N 29°43' W 095°03'0 0.0
2018-Feb-15 19:30N 29°43' W 095°03'0 0.0
2018-Feb-15 18:59N 29°43' W 095°03'0 0.0
2018-Feb-15 18:30N 29°43' W 095°03'0 0.0
2018-Feb-15 18:00N 29°43' W 095°03'0 0.0
2018-Feb-15 17:30N 29°43' W 095°03'0 0.0
2018-Feb-15 16:56N 29°43' W 095°03'0 0.0
2018-Feb-15 16:27N 29°43' W 095°03'0 0.0
2018-Feb-15 16:00N 29°43' W 095°03'0 0.0
2018-Feb-15 15:30N 29°43' W 095°03'0 0.0
2018-Feb-15 15:00N 29°43' W 095°03'0 0.0
2018-Feb-15 14:26N 29°43' W 095°03'0 0.0
2018-Feb-15 14:00N 29°43' W 095°03'0 0.0
2018-Feb-15 13:30N 29°43' W 095°03'0 0.0
2018-Feb-15 12:54N 29°43' W 095°03'0 0.0
2018-Feb-15 12:25N 29°43' W 095°03'0 0.0
2018-Feb-15 11:43N 29°43' W 095°03'0 0.0
2018-Feb-15 11:30N 29°43' W 095°03'0 0.0
2018-Feb-15 10:59N 29°43' W 095°03'0 0.0
2018-Feb-15 10:27N 29°43' W 095°03'0 0.0
2018-Feb-15 09:57N 29°43' W 095°03'0 0.0
2018-Feb-15 09:27N 29°43' W 095°03'0 0.0
2018-Feb-15 08:59N 29°43' W 095°03'0 0.0
2018-Feb-15 08:30N 29°43' W 095°03'0 0.0
2018-Feb-15 08:00N 29°43' W 095°03'0 0.0
2018-Feb-15 07:31N 29°43' W 095°03'0 0.0
2018-Feb-15 07:01N 29°43' W 095°03'0 0.0
2018-Feb-15 06:30N 29°43' W 095°03'0 0.0
2018-Feb-15 06:00N 29°43' W 095°03'0 0.0
2018-Feb-15 05:30N 29°43' W 095°03'0 0.0
2018-Feb-15 04:58N 29°43' W 095°03'0 0.0
2018-Feb-15 04:30N 29°43' W 095°03'0 0.0
2018-Feb-15 04:00N 29°43' W 095°03'0 0.0
2018-Feb-15 03:29N 29°43' W 095°03'0 0.0
2018-Feb-15 02:58N 29°43' W 095°03'1 1.2
2018-Feb-15 02:29N 29°42' W 095°02'2 2.5
2018-Feb-15 01:52N 29°44' W 095°03'4 0.8
2018-Feb-14 21:10N 29°47' W 095°04'4 0.2
2018-Feb-14 00:11N 29°44' W 095°02'2 6.2
2018-Feb-13 23:56N 29°43' W 095°01'1 1.6
2018-Feb-13 23:02N 29°42' W 095°03'0 0.0
2018-Feb-13 22:35N 29°42' W 095°03'0 0.0
2018-Feb-13 22:25N 29°42' W 095°03'0 0.0
2018-Feb-13 21:56N 29°42' W 095°03'0 0.0
2018-Feb-13 21:22N 29°42' W 095°03'0 0.0
2018-Feb-13 18:00N 29°42' W 095°03'0 0.0
2018-Feb-13 17:25N 29°42' W 095°03'0 0.0
2018-Feb-13 16:53N 29°42' W 095°03'0 0.0
2018-Feb-13 16:27N 29°42' W 095°03'0 0.0
2018-Feb-13 16:00N 29°42' W 095°03'0 0.0
2018-Feb-13 15:31N 29°42' W 095°03'0 0.0
2018-Feb-13 15:00N 29°42' W 095°03'0 0.0
2018-Feb-13 14:23N 29°42' W 095°03'0 0.0
2018-Feb-13 13:55N 29°42' W 095°03'0 0.0
2018-Feb-13 12:32N 29°42' W 095°03'0 0.0
2018-Feb-13 12:27N 29°42' W 095°03'0 0.0
2018-Feb-13 11:07N 29°42' W 095°03'0 0.1
2018-Feb-13 11:00N 29°42' W 095°03'0 0.0
2018-Feb-12 01:32N 29°42' W 095°03'0 0.0
2018-Feb-11 00:39N 29°42' W 095°03'0 0.0
2018-Feb-11 00:30N 29°42' W 095°03'0 0.0
2018-Feb-11 00:00N 29°42' W 095°03'0 0.0
2018-Feb-10 23:20N 29°42' W 095°03'0 0.0
2018-Feb-10 23:00N 29°42' W 095°03'0 0.0
2018-Feb-10 10:05N 29°42' W 095°03'0 0.1
2018-Feb-10 10:00N 29°42' W 095°03'0 0.0
2018-Feb-10 09:25N 29°42' W 095°03'0 0.0
2018-Feb-10 08:46N 29°42' W 095°03'0 0.0
2018-Feb-10 08:30N 29°42' W 095°03'0 0.0
2018-Feb-10 07:59N 29°42' W 095°03'  

Dump ship's entire track history